EGSSEGFF

Guest
Details From EGSS - London Stansted
To EGFF - Cardiff
Flight Number -
Tags Generated
Created
Modified
Stats Distance 136 nm / 253 km
Max Altitude 0 ft / 0 m
Waypoints 2
Social Downloads 3
Likes 0
Share VATSIM

Download

Looking for another format? Having issues loading an existing format? Contact us
Advertisement - Login to hide

Notes

Generated

Route

EGSS EGFF

ID Type Via Altitude Latitude Longitude Leg Dist Tot Dist Heading (true) Name
O EGSS APT - 0 ft / 0 m 51.87508˚ 0.21993˚ - 0 nm - -
O EGFF APT - 0 ft / 0 m 51.40151˚ -3.35867˚ 136 nm 136 nm 259° / 257° -

Altitude Profile

Advertisement - Login to hide

EGSS

Details ICAO EGSS (STN)
Name London Stansted
Region United Kingdom
Timezone Europe/London (UTC+0.0)
Stats Elevation 348 ft / 106 m (AMSL)
Location 51.885097° 0.234962°
Runways 1
Magnetic Variation 0.362° W

METAR

EGSS 161420Z AUTO 29007KT 9999 -RA BKN010 OVC049 03/01 Q1017

Decode

TAF

TAF EGSS 161057Z 1612/1718 30011KT 9999 SCT030 PROB40 TEMPO 1614/1618 -RA BKN009 TEMPO 1618/1623 6000 BKN004 PROB30 1620/1623 0300 FG BKN001 BECMG 1623/1702 VRB04KT 0300 FG VV/// TEMPO 1700/1709 FZFG BECMG 1709/1712 5000 -RA BR BKN005 BECMG 1712/1715 23010KT TEMPO 1712/1718 2000 RADZ BKN002 PROB30 TEMPO 1715/1718 24015G25KT

Decode

Departure Runways

ID Width Length Bearing (true) Bearing (mag) Surface Threshold Offset Overrun Length
04 151 ft / 46 m 10,011 ft / 3,052 m 42.79° 43.15° Asphalt 994 ft / 303 m 0 ft / 0 m
22 151 ft / 46 m 10,011 ft / 3,052 m 222.81° 223.17° Asphalt 0 ft / 0 m 0 ft / 0 m

EGFF

Details ICAO EGFF (CWL)
Name Cardiff
Region United Kingdom
Timezone Europe/London (UTC+0.0)
Stats Elevation 220 ft / 67 m (AMSL)
Location 51.396565° -3.343202°
Runways 1
Magnetic Variation 1.578° W

METAR

EGFF 161420Z 29015KT 9999 VCSH FEW008 SCT010 BKN022 06/05 Q1020 RESHRA

Decode

TAF

TAF AMD EGFF 161358Z 1613/1712 30012KT 9999 SCT020 TEMPO 1613/1618 BKN012 BECMG 1618/1621 VRB03KT BECMG 1706/1709 26010KT PROB40 TEMPO 1710/1712 26015G25KT 7000 RA BKN012

Decode

Destination Runways

ID Width Length Bearing (true) Bearing (mag) Surface Threshold Offset Overrun Length
12 131 ft / 40 m 7,831 ft / 2,387 m 116.82° 118.40° Asphalt 715 ft / 218 m 0 ft / 0 m
30 131 ft / 40 m 7,831 ft / 2,387 m 296.84° 298.42° Asphalt 594 ft / 181 m 0 ft / 0 m

Approach Navaids

Runway Type Ident Frequency Range Bearing (true) Bearing (mag) Slope Elevation
12 Localiser ICDF 110.70 MHz 18 nm / 33 km 116.85° 118.43° - 220 ft / 67 m (AMSL)
12 Glidescope ICDF 110.70 MHz 10 nm / 19 km 116.83° 118.41° 3.00° 220 ft / 67 m (AMSL)
12 DME ICDF 110.70 MHz 18 nm / 33 km - - - 281 ft / 86 m (AMSL)
30 Localiser ICWA 110.70 MHz 18 nm / 33 km 296.82° 298.40° - 220 ft / 67 m (AMSL)
30 Glidescope ICWA 110.70 MHz 10 nm / 19 km 296.83° 298.41° 3.00° 220 ft / 67 m (AMSL)
30 DME ICWA 110.70 MHz 18 nm / 33 km - - - 220 ft / 67 m (AMSL)

Popular Alternatives